Time;durP1;ratioP1;P1;durP2;ratioP2;P2;SDS_P1;SDS_P2;PMS_P1;PMS_P2;Temp;Humidity;BMP_temperature;BMP_pressure;BME280_temperature;BME280_humidity;BME280_pressure;Samples;Min_cycle;Max_cycle;Signal;HPM_P1;HPM_P2
2023/07/13 00:02:15;;;;;;;4.72;3.20;;;20.60;99.90;;;;;;5037646;28;20034;-76
2023/07/13 00:04:41;;;;;;;4.45;2.60;;;20.50;99.90;;;;;;5037300;28;20041;-76
2023/07/13 00:07:08;;;;;;;3.72;2.47;;;20.50;99.90;;;;;;5037423;28;20021;-76
2023/07/13 00:09:34;;;;;;;5.28;2.95;;;20.40;99.90;;;;;;5037077;28;20022;-76
2023/07/13 00:12:00;;;;;;;4.78;3.10;;;20.30;99.90;;;;;;5037316;28;20014;-76
2023/07/13 00:14:27;;;;;;;6.28;3.10;;;20.30;99.90;;;;;;5037057;28;20044;-75
2023/07/13 00:16:53;;;;;;;4.38;2.65;;;20.20;99.90;;;;;;5037385;28;20017;-75
2023/07/13 00:19:18;;;;;;;6.50;2.92;;;20.10;99.90;;;;;;5036980;28;20032;-75
2023/07/13 00:21:44;;;;;;;3.70;2.80;;;20.10;99.90;;;;;;5037169;28;20049;-75
2023/07/13 00:24:14;;;;;;;4.60;2.83;;;20.00;99.90;;;;;;5036917;28;20425;-75
2023/07/13 00:26:40;;;;;;;4.72;2.65;;;20.00;99.90;;;;;;5037035;28;20022;-75
2023/07/13 00:29:08;;;;;;;5.10;2.78;;;20.00;99.90;;;;;;5036538;28;20032;-75
2023/07/13 00:31:35;;;;;;;4.40;2.70;;;19.90;99.90;;;;;;5037269;28;20029;-75
2023/07/13 00:34:01;;;;;;;4.70;2.63;;;19.90;99.90;;;;;;5035508;28;20030;-75
2023/07/13 00:36:27;;;;;;;4.55;2.95;;;19.90;99.90;;;;;;5037085;28;20025;-75
2023/07/13 00:38:53;;;;;;;8.20;2.60;;;19.90;99.90;;;;;;5037011;28;20562;-75
2023/07/13 00:41:19;;;;;;;5.53;2.60;;;19.90;99.90;;;;;;5036997;28;20029;-75
2023/07/13 00:43:45;;;;;;;4.78;2.95;;;19.80;99.90;;;;;;5036651;28;20097;-75
2023/07/13 00:46:19;;;;;;;9.25;2.65;;;19.80;99.90;;;;;;5035502;28;20025;-75
2023/07/13 00:48:48;;;;;;;5.63;2.67;;;19.80;99.90;;;;;;5035543;28;20018;-75
2023/07/13 00:51:17;;;;;;;3.67;2.70;;;19.80;99.90;;;;;;5036653;28;20014;-75
2023/07/13 00:53:43;;;;;;;6.60;2.75;;;19.80;99.90;;;;;;5036726;28;20087;-75
2023/07/13 00:56:09;;;;;;;5.57;3.00;;;19.80;99.90;;;;;;5036807;28;20026;-75
2023/07/13 00:58:35;;;;;;;5.65;3.25;;;19.90;99.90;;;;;;5035080;28;20425;-75
2023/07/13 01:01:01;;;;;;;9.07;3.28;;;19.90;99.90;;;;;;5035478;28;20025;-74
2023/07/13 01:03:27;;;;;;;7.15;4.13;;;19.90;99.90;;;;;;5037540;28;20037;-75
2023/07/13 01:05:53;;;;;;;9.38;3.08;;;20.00;99.90;;;;;;5040650;28;20025;-74
2023/07/13 01:08:20;;;;;;;3.53;2.33;;;20.00;99.90;;;;;;5039382;28;20025;-75
2023/07/13 01:10:57;;;;;;;4.10;2.85;;;20.10;99.90;;;;;;5040642;28;20100;-75
2023/07/13 01:13:23;;;;;;;3.83;2.83;;;20.10;99.90;;;;;;5030391;28;20033;-75
2023/07/13 01:15:51;;;;;;;4.80;2.92;;;20.20;99.90;;;;;;5040331;28;20025;-75
2023/07/13 01:18:24;;;;;;;4.47;2.70;;;20.20;99.90;;;;;;5040561;28;20029;-75
2023/07/13 01:20:55;;;;;;;4.47;2.88;;;20.20;99.90;;;;;;5040346;28;20052;-75
2023/07/13 01:23:22;;;;;;;6.07;2.50;;;20.20;99.90;;;;;;5040421;28;20413;-75
2023/07/13 01:25:48;;;;;;;7.28;3.10;;;20.30;99.90;;;;;;5038766;28;20079;-75
2023/07/13 01:28:14;;;;;;;7.50;3.25;;;20.30;99.90;;;;;;5040070;28;20030;-73
2023/07/13 01:30:40;;;;;;;3.88;2.78;;;20.40;99.90;;;;;;5040255;28;20056;-75
2023/07/13 01:33:08;;;;;;;4.72;2.50;;;20.40;99.90;;;;;;5040347;28;20022;-75
2023/07/13 01:35:34;;;;;;;4.03;2.90;;;20.50;99.90;;;;;;5039928;28;20022;-74
2023/07/13 01:38:01;;;;;;;4.10;2.58;;;20.50;99.90;;;;;;5040217;28;20157;-74
2023/07/13 01:40:28;;;;;;;8.23;2.67;;;20.50;99.90;;;;;;5039963;28;20017;-74
2023/07/13 01:42:53;;;;;;;3.78;2.38;;;20.60;99.90;;;;;;5039775;28;20037;-74
2023/07/13 01:45:19;;;;;;;2.60;2.03;;;20.60;99.90;;;;;;5039839;28;20025;-75
2023/07/13 01:47:45;;;;;;;3.92;2.42;;;20.60;99.90;;;;;;5040368;28;20039;-75
2023/07/13 01:50:10;;;;;;;8.05;2.75;;;20.60;99.90;;;;;;5039568;28;20014;-73
2023/07/13 01:52:36;;;;;;;6.38;2.50;;;20.60;99.90;;;;;;5039595;28;20053;-75
2023/07/13 01:55:02;;;;;;;4.55;2.38;;;20.60;99.90;;;;;;5038416;28;20049;-74
2023/07/13 01:57:28;;;;;;;7.20;2.85;;;20.60;99.90;;;;;;5039630;28;20036;-73
2023/07/13 01:59:54;;;;;;;3.13;2.40;;;20.60;99.90;;;;;;5038296;28;20018;-74
2023/07/13 02:02:19;;;;;;;4.05;2.33;;;20.60;99.90;;;;;;5038337;28;20404;-75
2023/07/13 02:04:45;;;;;;;3.75;2.17;;;20.60;99.90;;;;;;5039324;28;20477;-74
2023/07/13 02:07:11;;;;;;;5.63;2.42;;;20.60;99.90;;;;;;5039900;28;20104;-74
2023/07/13 02:09:37;;;;;;;6.55;2.78;;;20.60;99.90;;;;;;5037986;28;20528;-74
2023/07/13 02:12:03;;;;;;;3.85;2.00;;;20.60;99.90;;;;;;5039533;28;20503;-73
2023/07/13 02:14:28;;;;;;;3.95;2.42;;;20.60;99.90;;;;;;5037250;28;20075;-74
2023/07/13 02:16:54;;;;;;;4.75;2.20;;;20.60;99.90;;;;;;5039742;28;20038;-74
2023/07/13 02:19:20;;;;;;;6.35;2.75;;;20.60;99.90;;;;;;5038037;28;20029;-75
2023/07/13 02:21:46;;;;;;;5.15;2.38;;;20.60;99.90;;;;;;5037952;28;20438;-75
2023/07/13 02:24:17;;;;;;;6.07;2.20;;;20.60;99.90;;;;;;5039134;28;20022;-73
2023/07/13 02:26:43;;;;;;;2.95;2.20;;;20.60;99.90;;;;;;5039185;28;20017;-73
2023/07/13 02:29:09;;;;;;;4.45;2.70;;;20.50;99.90;;;;;;5038877;28;20025;-73
2023/07/13 02:31:35;;;;;;;5.40;1.90;;;20.50;99.90;;;;;;5039327;28;20397;-74
2023/07/13 02:34:01;;;;;;;4.80;2.28;;;20.50;99.90;;;;;;5038967;28;20014;-75
2023/07/13 02:36:27;;;;;;;7.40;2.38;;;20.50;99.90;;;;;;5039261;28;20029;-74
2023/07/13 02:38:53;;;;;;;5.97;2.80;;;20.40;99.90;;;;;;5038947;28;20048;-73
2023/07/13 02:41:18;;;;;;;6.53;2.30;;;20.40;99.90;;;;;;5039081;28;20374;-73
2023/07/13 02:43:44;;;;;;;4.53;2.63;;;20.30;99.90;;;;;;5038417;28;20513;-75
2023/07/13 02:46:10;;;;;;;5.25;2.28;;;20.30;99.90;;;;;;5039015;28;20014;-73
2023/07/13 02:48:37;;;;;;;10.93;2.50;;;20.20;99.90;;;;;;5037359;28;20071;-74
2023/07/13 02:51:03;;;;;;;5.18;2.47;;;20.20;99.90;;;;;;5037337;28;20401;-75
2023/07/13 02:53:29;;;;;;;5.60;2.42;;;20.20;99.90;;;;;;5038514;28;20172;-74
2023/07/13 02:55:54;;;;;;;5.93;2.70;;;20.10;99.90;;;;;;5038825;28;20049;-74
2023/07/13 02:58:20;;;;;;;4.80;2.30;;;20.10;99.90;;;;;;5036870;28;20033;-74
2023/07/13 03:00:47;;;;;;;6.45;2.72;;;20.10;99.90;;;;;;5037022;28;20497;-74
2023/07/13 03:03:16;;;;;;;7.18;2.33;;;20.10;99.90;;;;;;5037235;28;20080;-73
2023/07/13 03:05:44;;;;;;;7.65;2.35;;;20.00;99.90;;;;;;5037831;28;20052;-73
2023/07/13 03:08:11;;;;;;;4.50;2.65;;;20.00;99.90;;;;;;5036804;28;20025;-73
2023/07/13 03:10:37;;;;;;;5.07;2.35;;;19.90;99.90;;;;;;5038201;28;20045;-74
2023/07/13 03:13:03;;;;;;;3.95;2.30;;;19.90;99.90;;;;;;5037964;28;20029;-74
2023/07/13 03:15:29;;;;;;;5.78;2.55;;;19.90;99.90;;;;;;5038376;28;20026;-73
2023/07/13 03:17:54;;;;;;;6.25;2.50;;;19.90;99.90;;;;;;5038095;28;20060;-75
2023/07/13 03:20:20;;;;;;;5.10;2.22;;;19.80;99.90;;;;;;5038316;28;20026;-74
2023/07/13 03:22:46;;;;;;;7.35;2.28;;;19.80;99.90;;;;;;5037874;28;20021;-76
2023/07/13 03:25:12;;;;;;;3.97;2.33;;;19.70;99.90;;;;;;5036788;28;20021;-74
2023/07/13 03:27:38;;;;;;;7.07;2.35;;;19.60;99.90;;;;;;5035574;28;20025;-73
2023/07/13 03:30:05;;;;;;;6.90;1.90;;;19.60;99.90;;;;;;5038115;28;20041;-75
2023/07/13 03:32:31;;;;;;;5.55;2.35;;;19.50;99.90;;;;;;5037913;28;20025;-74
2023/07/13 03:34:57;;;;;;;6.32;2.28;;;19.50;99.90;;;;;;5038022;28;20032;-75
2023/07/13 03:37:23;;;;;;;4.03;2.38;;;19.40;99.90;;;;;;5037733;28;20037;-73
2023/07/13 03:39:49;;;;;;;5.78;2.40;;;19.40;99.90;;;;;;5037818;28;20053;-74
2023/07/13 03:42:15;;;;;;;7.90;2.35;;;19.30;99.90;;;;;;5037279;28;20036;-74
2023/07/13 03:44:50;;;;;;;4.32;2.08;;;19.30;99.90;;;;;;5037740;28;20021;-74
2023/07/13 03:47:16;;;;;;;10.10;2.30;;;19.30;99.90;;;;;;5026688;28;20028;-73
2023/07/13 03:49:41;;;;;;;5.57;2.60;;;19.30;99.90;;;;;;5036417;28;20112;-75
2023/07/13 03:52:07;;;;;;;8.38;2.30;;;19.30;99.90;;;;;;5030650;28;20053;-73
2023/07/13 03:54:33;;;;;;;7.10;2.35;;;19.40;99.90;;;;;;5037559;28;20500;-75
2023/07/13 03:56:58;;;;;;;4.97;2.20;;;19.40;99.90;;;;;;5037408;28;20432;-75
2023/07/13 03:59:24;;;;;;;5.22;2.42;;;19.40;99.90;;;;;;5037394;28;20025;-75
2023/07/13 04:01:49;;;;;;;9.60;2.25;;;19.40;99.90;;;;;;5037296;28;20488;-74
2023/07/13 04:04:15;;;;;;;5.45;2.30;;;19.40;99.90;;;;;;5037344;28;20032;-76
2023/07/13 04:06:41;;;;;;;6.90;2.22;;;19.40;99.90;;;;;;5035993;28;20021;-76
2023/07/13 04:09:07;;;;;;;7.47;2.10;;;19.40;99.90;;;;;;5037237;28;20025;-74
2023/07/13 04:11:33;;;;;;;7.53;2.47;;;19.40;99.90;;;;;;5037073;28;20032;-74
2023/07/13 04:13:59;;;;;;;9.57;2.30;;;19.30;99.90;;;;;;5035787;28;20108;-76
2023/07/13 04:16:25;;;;;;;7.55;2.10;;;19.30;99.90;;;;;;5035998;28;20024;-75
2023/07/13 04:18:54;;;;;;;8.07;2.40;;;19.20;99.90;;;;;;5037225;28;20024;-76
2023/07/13 04:21:20;;;;;;;7.53;2.38;;;19.20;99.90;;;;;;5025136;28;20080;-75
2023/07/13 04:23:46;;;;;;;5.20;2.63;;;19.10;99.90;;;;;;5037028;28;20026;-75
2023/07/13 04:26:12;;;;;;;7.57;2.40;;;19.10;99.90;;;;;;5026162;28;20468;-75
2023/07/13 04:28:37;;;;;;;5.00;2.47;;;19.10;99.90;;;;;;5035364;28;20044;-75
2023/07/13 04:31:04;;;;;;;5.15;2.40;;;19.00;99.90;;;;;;5035715;28;20108;-74
2023/07/13 04:33:29;;;;;;;5.45;2.40;;;18.90;99.90;;;;;;5037048;28;20100;-75
2023/07/13 04:35:59;;;;;;;3.72;2.20;;;18.90;99.90;;;;;;5036753;28;20128;-75
2023/07/13 04:38:27;;;;;;;4.40;2.10;;;18.80;99.90;;;;;;5036793;28;20026;-75
2023/07/13 04:40:56;;;;;;;6.93;2.30;;;18.80;99.90;;;;;;5025805;28;20497;-76
2023/07/13 04:43:21;;;;;;;3.80;2.20;;;18.70;99.90;;;;;;5036512;28;20092;-75
2023/07/13 04:45:47;;;;;;;6.70;2.50;;;18.70;99.90;;;;;;5036913;28;20018;-75
2023/07/13 04:48:13;;;;;;;6.50;2.30;;;18.70;99.90;;;;;;5036852;28;20485;-75
2023/07/13 04:50:38;;;;;;;7.25;2.25;;;18.70;99.90;;;;;;5036743;28;20104;-74
2023/07/13 04:53:05;;;;;;;4.78;2.22;;;18.70;99.90;;;;;;5036473;28;20428;-75
2023/07/13 04:55:31;;;;;;;7.82;2.25;;;18.80;99.90;;;;;;5037059;28;20132;-75
2023/07/13 04:57:58;;;;;;;4.55;2.20;;;18.80;99.90;;;;;;5036443;28;20028;-75
2023/07/13 05:00:24;;;;;;;7.72;2.20;;;18.90;99.90;;;;;;5036810;28;20109;-76
2023/07/13 05:02:50;;;;;;;7.70;2.50;;;18.90;99.90;;;;;;5036515;28;20035;-74
2023/07/13 05:05:16;;;;;;;7.15;1.80;;;18.90;99.90;;;;;;5036823;28;20029;-75
2023/07/13 05:07:42;;;;;;;4.32;1.92;;;18.90;99.90;;;;;;5036704;28;20018;-75
2023/07/13 05:10:08;;;;;;;4.13;2.00;;;18.90;99.90;;;;;;5036763;28;20033;-75
2023/07/13 05:12:34;;;;;;;8.77;2.88;;;18.90;99.90;;;;;;5036297;28;20029;-74
2023/07/13 05:14:59;;;;;;;5.63;2.30;;;18.90;99.90;;;;;;5036641;28;20092;-74
2023/07/13 05:17:25;;;;;;;4.63;2.38;;;18.90;99.90;;;;;;5036368;28;20061;-76
2023/07/13 05:19:50;;;;;;;4.82;1.80;;;18.90;99.90;;;;;;5036720;28;20072;-73
2023/07/13 05:22:16;;;;;;;9.77;2.40;;;18.90;99.90;;;;;;5036349;28;20040;-75
2023/07/13 05:24:42;;;;;;;5.13;2.00;;;18.90;99.90;;;;;;5036646;28;20029;-76
2023/07/13 05:27:07;;;;;;;4.07;1.98;;;18.90;99.90;;;;;;5036207;28;20030;-75
2023/07/13 05:29:33;;;;;;;6.13;2.30;;;18.90;99.90;;;;;;5036450;28;20421;-74
2023/07/13 05:31:59;;;;;;;2.72;1.90;;;19.00;99.90;;;;;;5035038;28;20029;-74
2023/07/13 05:34:24;;;;;;;8.68;2.38;;;19.00;99.90;;;;;;5036470;28;20044;-74
2023/07/13 05:36:50;;;;;;;5.50;2.28;;;18.90;99.90;;;;;;5036254;28;20018;-77
2023/07/13 05:39:16;;;;;;;4.10;2.17;;;18.90;99.90;;;;;;5036693;28;20029;-76
2023/07/13 05:41:42;;;;;;;7.93;2.20;;;18.90;99.90;;;;;;5035973;28;20053;-76
2023/07/13 05:44:08;;;;;;;3.38;1.80;;;18.90;99.90;;;;;;5036403;28;20037;-74
2023/07/13 05:46:33;;;;;;;6.63;2.60;;;19.00;99.90;;;;;;5034853;28;20093;-75
2023/07/13 05:48:59;;;;;;;4.60;2.15;;;19.00;99.90;;;;;;5036564;28;20028;-73
2023/07/13 05:51:25;;;;;;;7.35;2.38;;;19.00;99.90;;;;;;5039586;28;20032;-75
2023/07/13 05:53:51;;;;;;;8.60;2.00;;;19.00;99.90;;;;;;5039056;28;20044;-76
2023/07/13 05:56:16;;;;;;;7.07;2.47;;;19.10;99.90;;;;;;5038596;28;20028;-77
2023/07/13 05:58:42;;;;;;;4.35;1.90;;;19.10;99.90;;;;;;5039501;28;20117;-78
2023/07/13 06:01:13;;;;;;;3.63;1.98;;;19.10;99.90;;;;;;5039705;28;20029;-79
2023/07/13 06:03:40;;;;;;;6.85;2.42;;;19.10;99.90;;;;;;5028151;28;20079;-78
2023/07/13 06:06:06;;;;;;;5.85;2.50;;;19.20;99.90;;;;;;5038180;28;20113;-77
2023/07/13 06:08:32;;;;;;;5.25;2.45;;;19.20;99.90;;;;;;5039665;28;20035;-78
2023/07/13 06:11:06;;;;;;;5.18;1.98;;;19.20;99.90;;;;;;5039447;28;20021;-76
2023/07/13 06:13:33;;;;;;;6.20;1.80;;;19.30;99.90;;;;;;5039453;28;20109;-78
2023/07/13 06:15:58;;;;;;;5.25;1.90;;;19.30;99.90;;;;;;5037909;28;20026;-77
2023/07/13 06:18:24;;;;;;;4.55;2.10;;;19.30;99.90;;;;;;5039396;28;20025;-78
2023/07/13 06:20:50;;;;;;;5.13;1.70;;;19.40;99.90;;;;;;5039169;28;20501;-76
2023/07/13 06:23:15;;;;;;;3.95;1.90;;;19.50;99.90;;;;;;5039266;28;20488;-76
2023/07/13 06:25:42;;;;;;;4.60;1.90;;;19.60;99.90;;;;;;5039072;28;20022;-77
2023/07/13 06:28:08;;;;;;;9.60;1.80;;;19.60;99.90;;;;;;5038744;28;20104;-76
2023/07/13 06:30:34;;;;;;;3.78;1.50;;;19.50;99.90;;;;;;5038971;28;20048;-77
2023/07/13 06:32:59;;;;;;;5.43;1.83;;;19.60;99.90;;;;;;5039211;28;20025;-77
2023/07/13 06:35:25;;;;;;;4.60;1.73;;;19.60;99.90;;;;;;5037848;28;20066;-76
2023/07/13 06:37:51;;;;;;;5.15;1.80;;;19.70;99.90;;;;;;5037724;28;20108;-79
2023/07/13 06:40:17;;;;;;;3.03;1.73;;;19.80;99.90;;;;;;5037430;28;20031;-77
2023/07/13 06:42:42;;;;;;;6.05;1.50;;;19.90;99.90;;;;;;5038619;28;20032;-75
2023/07/13 06:45:08;;;;;;;5.88;1.70;;;19.90;99.90;;;;;;5038742;28;20026;-76
2023/07/13 06:47:34;;;;;;;3.70;1.77;;;19.90;99.90;;;;;;5037619;28;20044;-77
2023/07/13 06:50:01;;;;;;;5.22;1.65;;;20.00;99.90;;;;;;5038282;28;20025;-76
2023/07/13 06:52:26;;;;;;;7.07;1.67;;;20.10;99.90;;;;;;5037297;28;20068;-77
2023/07/13 06:54:52;;;;;;;3.88;1.83;;;20.10;99.90;;;;;;5038510;28;20022;-78
2023/07/13 06:57:17;;;;;;;3.80;1.70;;;20.10;99.90;;;;;;5038671;28;20037;-77
2023/07/13 06:59:43;;;;;;;5.10;1.70;;;20.10;99.90;;;;;;5038071;28;20029;-80
2023/07/13 07:02:10;;;;;;;3.90;1.73;;;20.20;99.90;;;;;;5038644;28;20033;-78
2023/07/13 07:04:36;;;;;;;2.63;1.40;;;20.10;99.90;;;;;;5037032;28;20067;-80
2023/07/13 07:07:02;;;;;;;6.03;2.13;;;20.10;99.90;;;;;;5038723;28;20018;-79
2023/07/13 07:09:29;;;;;;;7.00;1.80;;;20.20;99.90;;;;;;5038530;28;20017;-80
2023/07/13 07:11:55;;;;;;;2.42;1.70;;;20.20;99.90;;;;;;5035376;28;20022;-79
2023/07/13 07:14:20;;;;;;;6.85;1.98;;;20.30;99.90;;;;;;5036259;28;20478;-77
2023/07/13 07:16:46;;;;;;;4.65;1.70;;;20.20;99.90;;;;;;5029210;28;20040;-80
2023/07/13 07:19:12;;;;;;;6.97;1.80;;;20.30;99.90;;;;;;5033690;28;20425;-77
2023/07/13 07:21:37;;;;;;;2.97;1.40;;;20.20;99.90;;;;;;5036068;28;20061;-76
2023/07/13 07:24:04;;;;;;;3.85;1.50;;;20.40;99.90;;;;;;5038155;28;20465;-78
2023/07/13 07:26:30;;;;;;;3.08;1.27;;;20.40;99.90;;;;;;5037968;28;20398;-79
2023/07/13 07:28:56;;;;;;;5.22;1.98;;;20.40;99.90;;;;;;5036533;28;20108;-78
2023/07/13 07:31:21;;;;;;;3.13;1.60;;;20.40;99.90;;;;;;5038151;28;20018;-78
2023/07/13 07:33:49;;;;;;;2.88;1.77;;;20.40;99.90;;;;;;5036390;28;20055;-78
2023/07/13 07:36:16;;;;;;;7.93;1.77;;;20.50;99.90;;;;;;5038137;28;20385;-78
2023/07/13 07:38:42;;;;;;;4.15;1.73;;;20.50;99.90;;;;;;5036349;28;20017;-77
2023/07/13 07:41:07;;;;;;;6.00;1.73;;;20.60;99.90;;;;;;5037970;28;20481;-76
2023/07/13 07:43:33;;;;;;;3.97;1.60;;;20.70;99.90;;;;;;5037142;28;20030;-77
2023/07/13 07:45:59;;;;;;;6.47;2.20;;;20.60;99.90;;;;;;5037697;28;20397;-76
2023/07/13 07:48:24;;;;;;;3.33;1.42;;;20.70;99.90;;;;;;5033773;28;20025;-77
2023/07/13 07:50:50;;;;;;;7.22;1.80;;;20.70;99.90;;;;;;5038575;28;20562;-76
2023/07/13 07:53:16;;;;;;;7.68;1.67;;;20.90;99.90;;;;;;5043322;28;20049;-78
2023/07/13 07:55:41;;;;;;;5.63;1.30;;;21.00;99.90;;;;;;5044800;28;20029;-77
2023/07/13 07:58:07;;;;;;;4.18;1.30;;;21.10;99.90;;;;;;5042589;28;20116;-77
2023/07/13 08:00:35;;;;;;;4.75;1.38;;;21.30;99.90;;;;;;5044346;28;20030;-77
2023/07/13 08:03:01;;;;;;;5.43;1.30;;;21.30;99.90;;;;;;5049718;28;20060;-79
2023/07/13 08:05:27;;;;;;;4.13;1.10;;;21.40;99.90;;;;;;5048066;28;20528;-77
2023/07/13 08:07:53;;;;;;;5.38;1.25;;;21.40;99.90;;;;;;5044998;28;20030;-76
2023/07/13 08:10:19;;;;;;;5.22;1.30;;;21.40;99.90;;;;;;5050155;28;20025;-78
2023/07/13 08:12:44;;;;;;;2.83;1.30;;;21.30;99.90;;;;;;5047345;28;20497;-75
2023/07/13 08:15:15;;;;;;;3.85;1.20;;;21.10;99.90;;;;;;5051200;28;20032;-79
2023/07/13 08:17:41;;;;;;;;;;;21.00;99.90;;;;;;5044136;28;20025;-77
2023/07/13 08:20:08;;;;;;;5.32;1.55;;;21.00;99.90;;;;;;5046360;28;19905;-78
2023/07/13 08:22:35;;;;;;;4.20;1.15;;;21.00;99.90;;;;;;5048551;28;20034;-75
2023/07/13 08:25:01;;;;;;;4.38;1.35;;;21.00;99.90;;;;;;5050634;28;20031;-77
2023/07/13 08:27:28;;;;;;;3.50;1.27;;;21.00;99.90;;;;;;5044647;28;20587;-76
2023/07/13 08:29:54;;;;;;;3.95;1.08;;;21.00;99.90;;;;;;5042570;28;20028;-76
2023/07/13 08:32:21;;;;;;;6.30;1.70;;;21.10;99.90;;;;;;5038211;28;20036;-76
2023/07/13 08:34:47;;;;;;;2.90;1.20;;;21.30;99.90;;;;;;5051102;28;20029;-77
2023/07/13 08:37:13;;;;;;;2.95;1.10;;;21.40;99.90;;;;;;5050053;28;20489;-78
2023/07/13 08:39:39;;;;;;;3.65;1.33;;;21.50;99.90;;;;;;5040769;28;20093;-76
2023/07/13 08:42:31;;;;;;;3.75;1.30;;;21.40;99.90;;;;;;5051968;28;20539;-77
2023/07/13 08:45:24;;;;;;;3.05;1.35;;;21.40;99.90;;;;;;5037573;28;20021;-77
2023/07/13 08:48:27;;;;;;;4.10;1.30;;;21.50;99.90;;;;;;5038879;28;20021;-79
2023/07/13 08:51:08;;;;;;;6.78;1.35;;;21.70;99.90;;;;;;5046868;28;20021;-80
2023/07/13 08:53:41;;;;;;;5.72;1.55;;;21.50;99.90;;;;;;5042886;28;20064;-75
2023/07/13 08:56:16;;;;;;;3.22;1.38;;;21.50;99.90;;;;;;5048565;28;20076;-77
2023/07/13 08:58:43;;;;;;;4.50;1.30;;;21.60;99.90;;;;;;5058985;28;20036;-78
2023/07/13 09:01:31;;;;;;;3.58;1.25;;;21.70;99.90;;;;;;5049386;28;20452;-78
2023/07/13 09:04:09;;;;;;;2.30;1.10;;;21.90;99.90;;;;;;5048806;28;20512;-79
2023/07/13 09:06:59;;;;;;;2.40;1.23;;;21.80;99.90;;;;;;5040118;28;20029;-77
2023/07/13 09:09:54;;;;;;;2.93;1.00;;;21.90;99.90;;;;;;5040119;28;20068;-75
2023/07/13 09:12:49;;;;;;;4.00;1.35;;;21.90;99.90;;;;;;5047489;28;20639;-74
2023/07/13 09:15:30;;;;;;;2.30;1.30;;;22.00;99.90;;;;;;5044587;28;20485;-73
2023/07/13 09:18:02;;;;;;;2.22;1.25;;;22.20;99.90;;;;;;5039871;28;20105;-74
2023/07/13 09:20:40;;;;;;;5.18;1.35;;;22.40;99.90;;;;;;5036912;28;20474;-73
2023/07/13 09:23:14;;;;;;;3.58;1.13;;;22.60;99.90;;;;;;5046542;28;20389;-74
2023/07/13 09:25:42;;;;;;;1.90;1.23;;;22.90;99.90;;;;;;5039890;28;20492;-75
2023/07/13 09:28:33;;;;;;;5.30;2.17;;;23.20;99.90;;;;;;5042394;28;20029;-73
2023/07/13 09:31:12;;;;;;;3.22;1.30;;;23.60;99.90;;;;;;5050788;28;20465;-74
2023/07/13 09:33:38;;;;;;;2.58;1.00;;;23.70;99.90;;;;;;5050481;28;20021;-74
2023/07/13 09:36:25;;;;;;;2.50;1.65;;;23.70;99.90;;;;;;5052405;28;20063;-79
2023/07/13 09:39:17;;;;;;;3.22;1.20;;;23.50;99.90;;;;;;5036092;28;20083;-76
2023/07/13 09:41:55;;;;;;;2.55;1.05;;;23.30;99.90;;;;;;5053777;28;20025;-79
2023/07/13 09:44:35;;;;;;;2.95;1.40;;;22.90;99.90;;;;;;5053950;28;20028;-72
2023/07/13 09:47:01;;;;;;;2.63;1.02;;;22.90;99.90;;;;;;5048613;28;20022;-75
2023/07/13 09:49:29;;;;;;;3.00;1.40;;;22.90;99.90;;;;;;5049389;28;20047;-73
2023/07/13 09:52:10;;;;;;;4.47;1.30;;;23.10;99.90;;;;;;5051840;28;20053;-73
2023/07/13 09:54:36;;;;;;;3.08;1.10;;;23.10;99.90;;;;;;5046015;28;20057;-71
2023/07/13 09:57:11;;;;;;;2.35;1.08;;;23.30;99.90;;;;;;5053529;28;20116;-70
2023/07/13 09:59:41;;;;;;;2.60;1.10;;;23.50;99.90;;;;;;5049680;28;20021;-75
2023/07/13 10:02:32;;;;;;;10.27;2.30;;;23.50;99.90;;;;;;5051894;28;20079;-72
2023/07/13 10:05:00;;;;;;;1.60;0.90;;;23.80;99.90;;;;;;5047837;28;20572;-71
2023/07/13 10:07:27;;;;;;;3.45;1.20;;;24.10;99.90;;;;;;5051311;28;20025;-71
2023/07/13 10:09:57;;;;;;;2.60;1.23;;;24.40;99.90;;;;;;5050811;28;20048;-73
2023/07/13 10:12:24;;;;;;;2.50;0.85;;;24.80;99.90;;;;;;5053551;28;20036;-72
2023/07/13 10:14:54;;;;;;;3.00;0.90;;;24.50;99.90;;;;;;5052499;28;20044;-72
2023/07/13 10:17:32;;;;;;;3.17;1.10;;;24.10;99.90;;;;;;5053415;28;20029;-73
2023/07/13 10:20:10;;;;;;;4.80;1.13;;;23.80;99.90;;;;;;5062676;28;20106;-73
2023/07/13 10:22:53;;;;;;;3.22;1.05;;;23.90;99.90;;;;;;5045292;28;20064;-72
2023/07/13 10:25:22;;;;;;;2.88;1.10;;;23.80;99.90;;;;;;5045396;28;20028;-70
2023/07/13 10:27:52;;;;;;;7.80;1.30;;;23.60;99.90;;;;;;5045675;28;20077;-71
2023/07/13 10:30:38;;;;;;;4.68;1.02;;;23.50;99.90;;;;;;5052050;28;20017;-71
2023/07/13 10:33:11;;;;;;;2.33;0.88;;;23.50;99.90;;;;;;5048370;28;20049;-74
2023/07/13 10:35:38;;;;;;;5.13;1.00;;;23.70;99.90;;;;;;5044233;28;20473;-72
2023/07/13 10:38:20;;;;;;;2.28;1.10;;;24.00;99.90;;;;;;5047273;28;20104;-71
2023/07/13 10:40:58;;;;;;;1.85;0.77;;;24.30;99.90;;;;;;5053022;28;20380;-72
2023/07/13 10:43:39;;;;;;;4.00;1.20;;;24.50;99.90;;;;;;5049189;28;20070;-72
2023/07/13 10:46:10;;;;;;;2.92;1.02;;;24.50;99.90;;;;;;5044441;28;20096;-73
2023/07/13 10:48:39;;;;;;;6.18;1.20;;;24.60;99.90;;;;;;5047417;28;20036;-72
2023/07/13 10:51:06;;;;;;;1.33;0.98;;;24.50;99.90;;;;;;5050222;28;20018;-72
2023/07/13 10:53:39;;;;;;;3.05;0.90;;;24.40;99.90;;;;;;5049490;28;20045;-72
2023/07/13 10:56:13;;;;;;;5.15;1.33;;;24.20;99.90;;;;;;5050765;28;20028;-72
2023/07/13 10:58:41;;;;;;;2.60;0.95;;;24.20;99.90;;;;;;5046042;28;20481;-72
2023/07/13 11:01:15;;;;;;;5.60;1.23;;;24.20;99.90;;;;;;5048162;28;20455;-72
2023/07/13 11:03:43;;;;;;;3.95;1.30;;;24.40;99.90;;;;;;5054685;28;20028;-74
2023/07/13 11:06:09;;;;;;;4.15;1.30;;;24.40;99.90;;;;;;5045334;28;20025;-72
2023/07/13 11:08:48;;;;;;;5.28;1.23;;;24.10;99.90;;;;;;5044598;28;20104;-72
2023/07/13 11:11:40;;;;;;;3.17;1.20;;;24.20;99.90;;;;;;5048679;28;20026;-73
2023/07/13 11:14:28;;;;;;;5.80;1.10;;;24.00;99.90;;;;;;5040461;28;20041;-73
2023/07/13 11:16:54;;;;;;;1.88;1.15;;;23.90;99.90;;;;;;5042604;28;20416;-73
2023/07/13 11:19:20;;;;;;;3.28;1.20;;;24.10;99.90;;;;;;5037616;28;20057;-72
2023/07/13 11:22:11;;;;;;;2.88;1.35;;;24.30;99.90;;;;;;5051348;28;20032;-73
2023/07/13 11:25:21;;;;;;;2.53;1.17;;;24.40;99.90;;;;;;5045750;28;20025;-72
2023/07/13 11:27:51;;;;;;;4.93;1.35;;;24.30;99.90;;;;;;5044837;28;20310;-73
2023/07/13 11:30:29;;;;;;;3.90;1.08;;;24.30;99.90;;;;;;5048211;28;20100;-72
2023/07/13 11:33:19;;;;;;;4.10;1.23;;;24.00;99.90;;;;;;5053443;28;20025;-72
2023/07/13 11:35:56;;;;;;;2.92;1.10;;;23.90;99.90;;;;;;5050238;28;20021;-72
2023/07/13 11:38:23;;;;;;;2.00;1.15;;;24.20;99.90;;;;;;5042612;28;20454;-72
2023/07/13 11:40:53;;;;;;;3.28;1.27;;;24.20;99.90;;;;;;5048788;28;20081;-72
2023/07/13 11:43:18;;;;;;;2.45;1.10;;;24.30;99.90;;;;;;5051382;28;20025;-73
2023/07/13 11:45:44;;;;;;;4.00;1.10;;;24.40;99.90;;;;;;5044919;28;20028;-72
2023/07/13 11:48:25;;;;;;;3.75;1.20;;;24.50;99.90;;;;;;5045518;28;20030;-72
2023/07/13 11:51:04;;;;;;;4.40;1.30;;;24.60;99.90;;;;;;5050301;28;20021;-73
2023/07/13 11:53:39;;;;;;;2.55;1.20;;;24.60;99.90;;;;;;5035713;28;20575;-72
2023/07/13 11:56:05;;;;;;;4.32;1.85;;;24.80;99.90;;;;;;5041131;28;20032;-73
2023/07/13 11:58:32;;;;;;;2.72;0.95;;;24.60;99.90;;;;;;5047591;28;20033;-72
2023/07/13 12:01:01;;;;;;;4.93;1.30;;;24.60;99.90;;;;;;5047240;28;20025;-72
2023/07/13 12:03:29;;;;;;;3.15;1.25;;;24.50;99.90;;;;;;5051713;28;20025;-72
2023/07/13 12:06:00;;;;;;;3.85;1.58;;;24.30;99.90;;;;;;5049401;28;20018;-72
2023/07/13 12:08:27;;;;;;;3.63;1.35;;;24.50;99.90;;;;;;5042630;28;20025;-72
2023/07/13 12:11:19;;;;;;;2.90;1.10;;;24.80;99.90;;;;;;5050521;28;20100;-72
2023/07/13 12:13:47;;;;;;;2.75;1.00;;;24.50;99.90;;;;;;5048882;28;20408;-73
2023/07/13 12:16:24;;;;;;;5.32;1.30;;;24.60;99.90;;;;;;5047841;28;20431;-71
2023/07/13 12:18:52;;;;;;;3.72;1.15;;;24.70;99.90;;;;;;5039037;28;20026;-72
2023/07/13 12:21:21;;;;;;;2.13;1.15;;;24.80;99.90;;;;;;5050926;28;20108;-72
2023/07/13 12:23:49;;;;;;;5.60;1.27;;;24.80;99.90;;;;;;5048941;28;20528;-73
2023/07/13 12:26:16;;;;;;;6.05;1.27;;;24.90;99.90;;;;;;5041875;28;20025;-72
2023/07/13 12:28:56;;;;;;;3.08;1.10;;;25.00;99.90;;;;;;5039786;28;20022;-72
2023/07/13 12:31:40;;;;;;;2.88;1.25;;;25.40;99.90;;;;;;5052133;28;20072;-72
2023/07/13 12:34:12;;;;;;;5.00;1.23;;;25.80;99.90;;;;;;5042344;28;20485;-71
2023/07/13 12:36:45;;;;;;;3.00;1.30;;;25.60;99.90;;;;;;5052163;28;20013;-70
2023/07/13 12:39:23;;;;;;;3.72;1.08;;;25.80;99.90;;;;;;5045117;28;20049;-71
2023/07/13 12:41:51;;;;;;;3.22;1.08;;;25.90;99.90;;;;;;5049682;28;20554;-73
2023/07/13 12:44:25;;;;;;;2.10;0.82;;;26.00;99.90;;;;;;5051106;28;20071;-73
2023/07/13 12:47:12;;;;;;;4.28;1.35;;;25.70;99.90;;;;;;5048576;28;20018;-75
2023/07/13 12:49:48;;;;;;;2.28;1.02;;;25.20;99.90;;;;;;5046455;28;20040;-75
2023/07/13 12:52:35;;;;;;;2.83;1.00;;;25.00;99.90;;;;;;5048245;28;20132;-75
2023/07/13 12:55:16;;;;;;;3.00;1.10;;;24.90;99.90;;;;;;5047859;28;20508;-75
2023/07/13 12:57:56;;;;;;;6.03;1.38;;;25.30;99.90;;;;;;5052137;28;20029;-74
2023/07/13 13:00:32;;;;;;;4.15;1.50;;;25.30;99.90;;;;;;5051986;28;20111;-77